Saturday, July 21, 2018, 2:28 AM CDT
Back to Local

KEHA, Elkhart, Elkhart-morton County Airport

Location: Elkhart, KS, United States Lat: 37
Local Time: 2:28 AM CDT ( 7:28 GMT) Lon: -101.883
Time Zone: US/Central Elev: 3622 ft

Show me the last for .
Show Decoded

2018-07-21 02:15 METAR KEHA 210715Z AUTO 17007KT 10SM CLR 23/18 A3007 RMK AO2 T02340182 =
2018-07-21 01:55 METAR KEHA 210655Z AUTO 16009KT 10SM CLR 23/18 A3007 RMK AO2 T02340181 =
2018-07-21 01:35 METAR KEHA 210635Z AUTO 14009KT 10SM CLR 24/18 A3007 RMK AO2 T02400176 =
2018-07-21 01:15 METAR KEHA 210615Z AUTO 11011KT 10SM CLR 25/17 A3008 RMK AO2 T02450173 =
2018-07-21 00:55 METAR KEHA 210555Z AUTO 11008KT 10SM CLR 25/17 A3009 RMK AO2 T02470173 10344
                 20245 404120183 =
2018-07-21 00:35 METAR KEHA 210535Z AUTO 08008KT 10SM CLR 25/17 A3010 RMK AO2 T02500170 =
2018-07-21 00:15 METAR KEHA 210515Z AUTO 06010KT 10SM CLR 25/17 A3010 RMK AO2 T02530166 =
2018-07-20 23:55 METAR KEHA 210455Z AUTO 05014G21KT 10SM CLR 26/16 A3008 RMK AO2 LTG DSNT E
                 T02570164 =
2018-07-20 23:35 METAR KEHA 210435Z AUTO 05014KT 10SM CLR 25/17 A3007 RMK AO2 LTG DSNT SE
                 T02460174 =
2018-07-20 23:15 METAR KEHA 210415Z AUTO 04013G23KT 10SM CLR 26/18 A3011 RMK AO2 T02560175 =
2018-07-20 22:55 METAR KEHA 210355Z AUTO 03014G18KT 10SM -RA CLR 26/17 A3008 RMK AO2 T02560174 =
2018-07-20 22:35 METAR KEHA 210335Z AUTO 04009KT 10SM -VCTSRA CLR 27/17 A3008 RMK AO2 LTG DSNT N
                 AND E T02720172 =
2018-07-20 22:15 METAR KEHA 210315Z AUTO 04009KT 10SM CLR 28/16 A3004 RMK AO2 LTG DSNT NE AND E
                 T02790161 =
2018-07-20 21:55 METAR KEHA 210255Z AUTO 04006KT 10SM CLR 28/16 A3002 RMK AO2 LTG DSNT NE AND E
                 T02810163 =
2018-07-20 21:35 METAR KEHA 210235Z AUTO 36008KT 10SM CLR 29/16 A3000 RMK AO2 LTG DSNT NE AND E
                 T02920160 =
2018-07-20 21:15 METAR KEHA 210215Z AUTO 01005KT 10SM TS CLR 30/16 A2997 RMK AO2 LTG DSNT N AND
                 NE T03020162 =
2018-07-20 20:55 METAR KEHA 210155Z AUTO 34004KT 10SM VCTS CLR 33/15 A2996 RMK AO2 LTG DSNT N
                 T03260147 =
2018-07-20 20:35 METAR KEHA 210135Z AUTO 30007KT 10SM CLR 30/18 A2994 RMK AO2 LTG DSNT N AND NE
                 T02970181 =
2018-07-20 20:15 METAR KEHA 210115Z AUTO 32003KT 10SM CLR 31/16 A2992 RMK AO2 T03130159 =
2018-07-20 19:55 METAR KEHA 210055Z AUTO 00000KT 10SM CLR 32/17 A2992 RMK AO2 T03230170 =
2018-07-20 19:35 METAR KEHA 210035Z AUTO 03005KT 10SM CLR 33/16 A2993 RMK AO2 T03270160 =
2018-07-20 19:15 METAR KEHA 210015Z AUTO 36003KT 10SM CLR 33/16 A2994 RMK AO2 T03340157 =
2018-07-20 18:55 METAR KEHA 202355Z AUTO 00000KT 10SM CLR 35/15 A2992 RMK AO2 T03480148 10412
                 20325 =
2018-07-20 18:35 METAR KEHA 202335Z AUTO 01010KT 10SM -RA CLR 33/15 A2992 RMK AO2 T03250149 =
2018-07-20 18:15 METAR KEHA 202315Z AUTO 09004KT 10SM CLR 35/13 A2993 RMK AO2 T03480130 =
2018-07-20 17:55 METAR KEHA 202255Z AUTO 01009KT 10SM CLR 37/16 A2993 RMK AO2 LTG DSNT NE
                 T03740155 =
2018-07-20 17:35 METAR KEHA 202235Z AUTO 21009KT 10SM CLR 37/17 A2991 RMK AO2 T03740166 =
2018-07-20 17:15 METAR KEHA 202215Z AUTO 21007KT 10SM CLR 39/17 A2991 RMK AO2 T03860172 =
2018-07-20 16:55 METAR KEHA 202155Z AUTO 20011KT 10SM CLR 40/15 A2991 RMK AO2 T03950148 =
2018-07-20 16:35 METAR KEHA 202135Z AUTO 21012KT 10SM CLR 40/16 A2991 RMK AO2 T03980157 =
2018-07-20 16:15 METAR KEHA 202115Z AUTO 20011KT 10SM CLR 41/16 A2991 RMK AO2 T04070164 =
2018-07-20 15:55 METAR KEHA 202055Z AUTO 21011G17KT 10SM CLR 41/16 A2992 RMK AO2 T04050157 =
2018-07-20 15:35 METAR KEHA 202035Z AUTO 20010KT 10SM CLR 41/17 A2992 RMK AO2 T04050174 =
2018-07-20 15:15 METAR KEHA 202015Z AUTO 21011KT 10SM CLR 41/16 A2993 RMK AO2 T04120159 =
2018-07-20 14:55 METAR KEHA 201955Z AUTO 23010KT 10SM CLR 41/14 A2993 RMK AO2 T04120143 =
2018-07-20 14:35 METAR KEHA 201935Z AUTO 23010G17KT 10SM CLR 41/15 A2994 RMK AO2 T04090150 =
2018-07-20 14:15 METAR KEHA 201915Z AUTO 22009KT 10SM CLR 41/17 A2994 RMK AO2 T04070166 =
2018-07-20 13:55 METAR KEHA 201855Z AUTO 21013KT 10SM CLR 41/17 A2994 RMK AO2 T04050171 =
2018-07-20 13:35 METAR KEHA 201835Z AUTO 22012KT 10SM CLR 40/18 A2995 RMK AO2 T03990184 =
2018-07-20 13:15 METAR KEHA 201815Z AUTO 21013G16KT 10SM CLR 39/19 A2996 RMK AO2 T03920193 =
2018-07-20 12:55 METAR KEHA 201755Z AUTO 21012KT 10SM CLR 39/20 A2996 RMK AO2 T03900196 10390
                 20186 =
2018-07-20 12:35 METAR KEHA 201735Z AUTO 23011G17KT 10SM CLR 39/18 A2996 RMK AO2 T03850182 =
2018-07-20 12:15 METAR KEHA 201715Z AUTO 23010G15KT 10SM CLR 38/18 A2996 RMK AO2 T03800182 =
2018-07-20 11:55 METAR KEHA 201655Z AUTO 24012G15KT 10SM CLR 37/18 A2997 RMK AO2 T03730175 =
2018-07-20 11:35 METAR KEHA 201635Z AUTO 24011KT 10SM CLR 37/17 A2997 RMK AO2 T03650174 =
2018-07-20 11:10 METAR KEHA 201610Z AUTO 24012KT 10SM CLR 35/17 A2997 RMK AO2 T03530168 =
2018-07-20 10:55 METAR KEHA 201555Z AUTO 24009G15KT 10SM CLR 35/18 A2996 RMK AO2 LTG DSNT NE
                 T03480179 =
2018-07-20 10:35 METAR KEHA 201535Z AUTO 24011KT 10SM CLR 34/18 A2996 RMK AO2 T03400180 =
2018-07-20 10:15 METAR KEHA 201515Z AUTO 24007KT 10SM CLR 32/18 A2997 RMK AO2 T03150180 =
2018-07-20 09:55 METAR KEHA 201455Z AUTO 23008KT 10SM CLR 30/18 A2997 RMK AO2 T02990181 =
2018-07-20 09:35 METAR KEHA 201435Z AUTO 23009KT 10SM CLR 28/18 A2997 RMK AO2 T02780178 =
2018-07-20 09:15 METAR KEHA 201415Z AUTO 21006KT 10SM CLR 26/18 A2997 RMK AO2 T02560180 =
2018-07-20 08:55 METAR KEHA 201355Z AUTO 21006KT 10SM CLR 25/18 A2997 RMK AO2 T02530176 =
2018-07-20 08:35 METAR KEHA 201335Z AUTO 18005KT 10SM CLR 24/18 A2997 RMK AO2 T02410175 =
2018-07-20 08:15 METAR KEHA 201315Z AUTO 19007KT 10SM CLR 23/17 A2997 RMK AO2 T02260171 =
2018-07-20 07:55 METAR KEHA 201255Z AUTO 19006KT 10SM CLR 21/17 A2997 RMK AO2 T02140171 =
2018-07-20 07:35 METAR KEHA 201235Z AUTO 20004KT 10SM CLR 20/17 A2997 RMK AO2 T02010170 =
2018-07-20 07:15 METAR KEHA 201215Z AUTO 19005KT 10SM CLR 19/17 A2997 RMK AO2 T01930167 =
2018-07-20 06:55 METAR KEHA 201155Z AUTO 17006KT 10SM CLR 18/17 A2997 RMK AO2 70065 T01830168
                 10241 20183 =
2018-07-20 06:35 METAR KEHA 201135Z AUTO 22005KT 10SM CLR 19/16 A2997 RMK AO2 T01900164 =
2018-07-20 06:15 METAR KEHA 201115Z AUTO 18004KT 10SM CLR 20/16 A2996 RMK AO2 T02020161 =
2018-07-20 05:55 METAR KEHA 201055Z AUTO 17004KT 10SM CLR 21/16 A2996 RMK AO2 LTG DSNT N
                 T02090161 =
2018-07-20 05:35 METAR KEHA 201035Z AUTO 25005KT 10SM CLR 23/15 A2996 RMK AO2 T02290153 =
2018-07-20 05:15 METAR KEHA 201015Z AUTO 25007KT 10SM CLR 24/15 A2996 RMK AO2 T02350153 =
2018-07-20 04:55 METAR KEHA 200955Z AUTO 25010KT 10SM CLR 24/15 A2996 RMK AO2 T02360153 =
2018-07-20 04:35 METAR KEHA 200935Z AUTO 25010KT 10SM CLR 24/16 A2996 RMK AO2 T02370155 =
2018-07-20 04:15 METAR KEHA 200915Z AUTO 26008KT 10SM CLR 23/16 A2996 RMK AO2 T02250162 =
2018-07-20 03:55 METAR KEHA 200855Z AUTO 26010KT 10SM CLR 23/16 A2997 RMK AO2 T02300159 =
2018-07-20 03:35 METAR KEHA 200835Z AUTO 26010KT 10SM CLR 23/16 A2996 RMK AO2 T02300161 =
2018-07-20 03:15 METAR KEHA 200815Z AUTO 26008KT 10SM CLR 23/16 A2996 RMK AO2 T02320161 =
2018-07-20 02:55 METAR KEHA 200755Z AUTO 27006KT 10SM CLR 23/16 A2996 RMK AO2 T02280164 =
2018-07-20 02:35 METAR KEHA 200735Z AUTO 22008KT 10SM CLR 22/17 A2996 RMK AO2 T02220165 =

Support USWX by starting your Amazon purchase here.